< Typhoon 198826 1988 Season Typhoon 198828 >
Typhoon 198827 (PAT)
General InformationTrack Information on Google MapsDetailed Wind InformationList of All Images || Disaster Info.ResourceGoogle EarthGE AnimationAtom FeedGeoJSON
Detalied Best Track (Time Zone = UTC)
Year Month Day Hour Lat. Long. Pressure (hPa) Wind (kt) Class Image Chart
1988 10 17 18 11.0 135.0 1004 0 2 Image Chart
1988 10 18 00 12.0 135.0 1004 0 2 Image Chart
1988 10 18 06 13.5 135.0 1002 0 2 Image Chart
1988 10 18 12 15.0 134.0 1002 0 2 Image Chart
1988 10 18 18 16.0 133.0 1002 0 2 Image Chart
1988 10 19 00 16.5 131.5 1000 35 3 Image Chart
1988 10 19 06 16.5 130.5 998 40 3 Image Chart
1988 10 19 12 16.5 129.5 994 40 3 Image Chart
1988 10 19 18 16.5 128.0 992 45 3 Image Chart
1988 10 20 00 16.5 126.0 990 45 3 Image Chart
1988 10 20 06 16.5 124.0 985 50 4 Image Chart
1988 10 20 12 16.6 122.0 990 50 4 Image Chart
1988 10 20 18 16.7 120.0 990 45 3 Image Chart
1988 10 21 00 16.7 118.2 985 50 4 Image Chart
1988 10 21 06 16.7 116.8 985 50 4 Image Chart
1988 10 21 12 17.0 115.2 985 55 4 Image Chart
1988 10 21 18 17.3 113.5 980 55 4 Image Chart
1988 10 22 00 17.7 111.9 980 60 4 Image Chart
1988 10 22 06 18.5 110.4 985 60 4 Image Chart
1988 10 22 12 19.0 109.2 992 45 3 Image Chart
1988 10 22 18 20.0 107.8 996 45 3 Image Chart
1988 10 23 00 20.6 106.7 1000 0 2 Image Chart
1988 10 23 06 22.0 106.0 1004 0 2 Image Chart
1988 10 23 12 22.5 105.5 1008 0 2 Image Chart
Japan Meteorological Agency Best Track Data | Correction Date : 1992-10-21
< Typhoon 198826 1988 Season Typhoon 198828 >

Help